Acton, MA

10:28 PM EDT on October 21, 2014 (GMT -0400)
Long Lake | Change Station
CLOSE
Current Station
Personal Weather Station
Location: Littleton, MA
Elevation: 272 ft
Nearby Weather Stations

Elev 272 ft 42.53 °N, 71.47 °W | Updated 3 seconds ago

Overcast
Overcast
52.3 °F
Feels Like 52.3 °F
N
1.0
Wind Variable Wind from NE

Today
High -- | Low -- °F
--% Chance of Precip.
Yesterday
High -- | Low -- °F
Precip. -- in
7:05 AM 5:54 PM
Waning Crescent, 3% visible
Pressure 30.02 in
Visibility 7.0 miles
Clouds Overcast 500 ft
Dew Point 52 °F
Humidity 99%
Rainfall -999.00 in
Snow Depth Not available.
UV 0 out of 12
Pollen .30 out of 12
Air Quality Not available.
Flu Activity No Activity
METAR KBED 220156Z 01008KT 7SM OVC005 12/11 A2998 RMK AO2 SLP166 T01170111

More Conditions Fewer Conditions

Pressure 30.02 in
Visibility 7.0 miles
Clouds Overcast 500 ft
Dew Point 52 °F
Humidity 99%
Rainfall -999.00 in
Snow Depth Not available.
UV 0 out of 12
Pollen .30 out of 12
Air Quality Not available.
Flu Activity No Activity
METAR KBED 220156Z 01008KT 7SM OVC005 12/11 A2998 RMK AO2 SLP166 T01170111

More Conditions Fewer Conditions

10-Day Weather Forecast

Almanac

Astronomy

Oct. 21, 2014 Rise Set
Actual Time 7:05 AM EDT 5:54 PM EDT
Civil Twilight 6:37 AM EDT 6:22 PM EDT
Nautical Twilight 6:04 AM EDT 6:55 PM EDT
Astronomical Twilight 5:31 AM EDT 7:28 PM EDT
Moon 4:44 AM EDT (10/21) 4:48 PM EDT (10/21)
Length of Visible Light 11h 45m
Length of Day
10h 48m
Tomorrow will be 2m 42s shorter.
Waning Crescent, 3% of the Moon is Illuminated
Today
Waning Crescent
Oct 23
New
Oct 30
First Quarter
Nov 6
Full
Nov 14
Last Quarter

Today's Extremes

State Highs State Lows

Community

WunderPhotos

Upload Photos

1,763,858 photos uploaded!

Nearby

Air Quality

  Air Quality AQ Index Pollutant
Tuesday Good
PM2.5
Wednesday Good
PM2.5
Thursday Good
PM2.5

Snow Depth

Station Depth Elevation
No new snow has been reported.

Earthquake Activity

City Distance Mag. Time & Date
No recent earthquake activity has been reported nearby.
Minimum magnitude displayed is 2.5.

Coastal Water Temperatures

Place Temperature
Boston, MA 57.0 °F
Providence, RI 61.0 °F
Fall River, MA 63.0 °F
Conimicut Light, RI 61.0 °F

Nearby Weather Stations